createdAt,value
2023-04-02T00:56:45.266Z,2.05
2023-04-02T00:58:52.320Z,2.20
2023-04-02T01:00:55.739Z,1.92
2023-04-02T01:03:31.174Z,1.98
2023-04-02T01:05:35.693Z,2.30
2023-04-02T01:07:52.881Z,1.70
2023-04-02T01:10:09.230Z,1.75
2023-04-02T01:12:39.128Z,1.80
2023-04-02T01:14:49.819Z,1.63
2023-04-02T01:16:56.229Z,1.90
2023-04-02T01:19:03.139Z,1.80
2023-04-02T01:21:25.552Z,1.88
2023-04-02T01:23:30.166Z,1.60
2023-04-02T01:25:37.820Z,1.63
2023-04-02T01:27:45.021Z,1.77
2023-04-02T01:29:50.296Z,1.85
2023-04-02T01:33:01.850Z,1.70
2023-04-02T01:35:06.112Z,1.98
2023-04-02T01:37:24.064Z,2.05
2023-04-02T01:39:39.992Z,2.00
2023-04-02T01:41:45.310Z,2.05
2023-04-02T01:43:50.036Z,2.25
2023-04-02T01:45:54.785Z,2.13
2023-04-02T01:47:58.575Z,1.80
2023-04-02T01:50:03.826Z,1.70
2023-04-02T01:52:08.755Z,1.70
2023-04-02T01:54:12.082Z,1.88
2023-04-02T01:56:15.413Z,1.63
2023-04-02T01:58:20.731Z,1.67
2023-04-02T02:00:24.429Z,1.98
2023-04-02T02:02:29.375Z,1.77
2023-04-02T02:06:34.083Z,1.38
2023-04-02T02:08:39.836Z,1.88
2023-04-02T02:10:43.234Z,1.70
2023-04-02T02:16:12.843Z,1.70
2023-04-02T02:18:18.441Z,2.00
2023-04-02T02:20:21.925Z,1.70
2023-04-02T02:22:28.487Z,1.80
2023-04-02T02:24:33.726Z,2.10
2023-04-02T02:26:38.613Z,1.88
2023-04-02T02:28:42.042Z,1.77
2023-04-02T02:30:47.552Z,1.90
2023-04-02T02:32:56.139Z,2.17
2023-04-02T02:35:04.025Z,2.00
2023-04-02T02:37:08.527Z,2.03
2023-04-02T02:39:14.696Z,2.00
2023-04-02T02:41:24.727Z,2.15
2023-04-02T02:43:28.461Z,2.05
2023-04-02T02:45:35.012Z,2.00
2023-04-02T02:47:47.974Z,2.35
2023-04-02T02:49:52.710Z,1.92
2023-04-02T02:52:00.195Z,2.47
2023-04-02T02:54:08.019Z,2.33
2023-04-02T02:56:12.436Z,2.10
2023-04-02T02:58:17.594Z,2.47
2023-04-02T03:00:24.648Z,2.13
2023-04-02T03:02:28.800Z,2.72
2023-04-02T03:04:36.592Z,2.20
2023-04-02T03:07:08.990Z,2.50
2023-04-02T03:09:18.740Z,2.42
2023-04-02T03:11:26.776Z,2.38
2023-04-02T03:13:33.299Z,2.42
2023-04-02T03:15:39.396Z,2.65
2023-04-02T03:17:44.217Z,2.47
2023-04-02T03:19:48.736Z,2.50
2023-04-02T03:26:06.732Z,2.35
2023-04-02T03:28:14.191Z,3.10
2023-04-02T03:30:42.069Z,2.33
2023-04-02T03:32:45.712Z,2.83
2023-04-02T03:34:50.860Z,2.78
2023-04-02T03:36:57.990Z,3.05
2023-04-02T03:39:05.709Z,2.70
2023-04-02T03:41:12.977Z,2.60
2023-04-02T03:43:20.483Z,2.83
2023-04-02T03:45:26.022Z,2.80
2023-04-02T03:47:33.068Z,3.15
2023-04-02T03:49:37.955Z,3.10
2023-04-02T03:52:00.141Z,2.90
2023-04-02T03:54:03.684Z,2.65
2023-04-02T03:56:07.779Z,2.70
2023-04-02T03:58:15.611Z,2.80
2023-04-02T04:00:21.318Z,2.83
2023-04-02T04:02:42.933Z,2.70
2023-04-02T04:04:46.489Z,2.63
2023-04-02T04:07:49.369Z,2.65
2023-04-02T04:09:52.892Z,2.40
2023-04-02T04:11:58.531Z,2.42
2023-04-02T04:14:04.740Z,2.30
2023-04-02T04:16:09.265Z,2.70
2023-04-02T04:18:29.678Z,2.53
2023-04-02T04:20:35.894Z,2.65
2023-04-02T04:22:41.020Z,2.70
2023-04-02T04:24:45.994Z,3.03
2023-04-02T04:26:53.593Z,2.85
2023-04-02T04:31:55.994Z,2.90
2023-04-02T04:34:05.443Z,2.92
2023-04-02T04:36:19.367Z,2.60
2023-04-02T04:38:27.974Z,2.45
2023-04-02T04:40:32.475Z,2.38
2023-04-02T04:42:36.503Z,2.47
2023-04-02T04:44:43.878Z,2.88
2023-04-02T04:46:48.803Z,2.53
2023-04-02T04:48:55.852Z,2.80
2023-04-02T04:51:10.722Z,2.90
2023-04-02T04:53:16.894Z,2.80
2023-04-02T04:55:31.095Z,2.47
2023-04-02T04:57:35.636Z,2.50
2023-04-02T05:00:16.864Z,2.63
2023-04-02T05:02:25.266Z,3.00
2023-04-02T05:04:40.677Z,3.40
2023-04-02T05:06:45.092Z,3.33
2023-04-02T05:08:49.817Z,3.20
2023-04-02T05:10:54.994Z,3.88
2023-04-02T05:15:00.137Z,3.60
2023-04-02T05:17:06.367Z,3.45
2023-04-02T05:19:12.128Z,4.15
2023-04-02T05:21:29.277Z,3.78
2023-04-02T05:23:36.052Z,4.28
2023-04-02T05:25:39.713Z,4.38
2023-04-02T05:27:45.633Z,4.47
2023-04-02T05:29:51.118Z,4.38
2023-04-02T05:31:57.056Z,4.93
2023-04-02T05:34:00.534Z,5.00
2023-04-02T05:36:05.515Z,5.13
2023-04-02T05:39:05.341Z,4.65
2023-04-02T05:41:18.459Z,5.07
2023-04-02T05:43:22.446Z,4.60
2023-04-02T05:45:29.272Z,4.93
2023-04-02T05:47:33.557Z,5.45
2023-04-02T05:49:39.099Z,5.75
2023-04-02T05:52:28.202Z,6.30
2023-04-02T05:54:34.009Z,6.28
2023-04-02T05:56:40.778Z,6.50
2023-04-02T05:58:47.458Z,6.85
2023-04-02T06:01:15.552Z,6.63
2023-04-02T06:09:42.585Z,7.13
2023-04-02T06:11:48.938Z,6.60
2023-04-02T06:13:52.276Z,2.72
2023-04-02T06:16:23.031Z,1.58
2023-04-02T06:18:27.394Z,0.65
2023-04-02T06:20:30.892Z,0.70
2023-04-02T06:22:36.385Z,0.65
2023-04-02T06:24:40.525Z,0.63
2023-04-02T06:26:44.951Z,0.55
2023-04-02T06:28:53.477Z,0.70
2023-04-02T06:31:01.134Z,0.50
2023-04-02T06:33:05.275Z,0.50
2023-04-02T06:35:12.968Z,0.67
2023-04-02T06:37:19.884Z,0.67
2023-04-02T06:39:24.371Z,0.60
2023-04-02T06:41:28.151Z,0.50
2023-04-02T06:43:44.499Z,0.63
2023-04-02T06:45:50.160Z,0.70
2023-04-02T06:47:53.865Z,0.70
2023-04-02T06:49:59.858Z,0.80
2023-04-02T06:52:04.312Z,0.60
2023-04-02T06:54:08.801Z,0.57
2023-04-02T06:56:14.719Z,0.60
2023-04-02T06:58:19.080Z,0.80
2023-04-02T07:00:26.939Z,0.80
2023-04-02T07:02:34.211Z,0.60
2023-04-02T07:04:37.862Z,0.60
2023-04-02T07:06:41.369Z,0.70
2023-04-02T07:08:45.258Z,0.67
2023-04-02T07:10:48.907Z,0.80
2023-04-02T07:12:52.422Z,0.70
2023-04-02T07:14:56.063Z,0.80
2023-04-02T07:16:59.785Z,0.90
2023-04-02T07:19:05.511Z,0.60
2023-04-02T07:21:09.113Z,0.50
2023-04-02T07:23:14.846Z,0.50
2023-04-02T07:25:20.338Z,0.50
2023-04-02T07:27:24.249Z,0.50
2023-04-02T07:29:28.052Z,0.80
2023-04-02T07:31:32.366Z,0.60
2023-04-02T07:33:36.441Z,0.60
2023-04-02T07:35:41.376Z,0.60
2023-04-02T07:40:09.390Z,0.60
2023-04-02T07:42:13.237Z,0.50
2023-04-02T07:44:17.274Z,0.70
2023-04-02T07:46:21.314Z,0.60
2023-04-02T07:48:24.904Z,0.70
2023-04-02T07:50:29.015Z,0.70
2023-04-02T07:52:34.053Z,0.60
2023-04-02T07:54:38.346Z,0.70
2023-04-02T07:56:42.891Z,0.60
2023-04-02T07:58:46.882Z,0.73
2023-04-02T08:00:50.354Z,0.60
2023-04-02T08:02:54.129Z,0.70
2023-04-02T08:05:40.585Z,0.60
2023-04-02T08:07:45.643Z,0.80
2023-04-02T08:09:49.467Z,0.60
2023-04-02T08:11:53.040Z,0.53
2023-04-02T08:13:56.433Z,0.70
2023-04-02T08:16:03.511Z,0.60
2023-04-02T08:18:29.180Z,0.60
2023-04-02T08:20:32.894Z,0.83
2023-04-02T08:22:36.507Z,0.93
2023-04-02T08:24:41.451Z,0.63
2023-04-02T08:26:45.524Z,0.80
2023-04-02T08:28:49.185Z,0.70
2023-04-02T08:30:52.823Z,0.80
2023-04-02T08:32:59.069Z,0.80
2023-04-02T08:35:02.795Z,0.90
2023-04-02T08:37:06.325Z,0.83
2023-04-02T08:39:11.929Z,0.80
2023-04-02T08:41:36.349Z,0.83
2023-04-02T08:44:07.216Z,0.90
2023-04-02T08:46:13.201Z,0.70
2023-04-02T08:48:16.991Z,0.90
2023-04-02T08:50:25.706Z,0.80
2023-04-02T08:52:30.189Z,0.90
2023-04-02T08:54:34.992Z,0.70
2023-04-02T08:56:41.616Z,0.93
2023-04-02T08:58:45.942Z,0.90
2023-04-02T09:01:02.863Z,0.80
2023-04-02T09:03:10.394Z,0.60
2023-04-02T09:05:19.546Z,0.90
2023-04-02T09:07:23.306Z,1.00
2023-04-02T09:09:27.354Z,1.10
2023-04-02T09:11:34.809Z,1.00
2023-04-02T09:13:42.572Z,1.20
2023-04-02T09:16:09.200Z,1.20
2023-04-02T09:18:14.680Z,1.20
2023-04-02T09:20:19.192Z,1.40
2023-04-02T09:22:22.912Z,1.23
2023-04-02T09:24:26.361Z,1.20
2023-04-02T09:26:32.752Z,1.37
2023-04-02T09:28:36.505Z,1.37
2023-04-02T09:30:54.933Z,1.30
2023-04-02T09:32:59.808Z,1.50
2023-04-02T09:35:26.597Z,1.30
2023-04-02T09:37:30.761Z,1.10
2023-04-02T09:39:35.777Z,1.40
2023-04-02T09:41:40.321Z,1.43
2023-04-02T09:43:43.906Z,1.30
2023-04-02T09:45:57.469Z,1.47
2023-04-02T09:52:21.844Z,1.40
2023-04-02T09:54:26.934Z,1.63
2023-04-02T09:56:30.735Z,1.30
2023-04-02T09:59:17.158Z,1.50
2023-04-02T10:01:30.268Z,1.57
2023-04-02T10:03:34.536Z,1.50
2023-04-02T10:05:40.986Z,1.30
2023-04-02T10:07:46.193Z,1.50
2023-04-02T10:09:50.350Z,1.33
2023-04-02T10:11:54.178Z,1.40
2023-04-02T10:13:59.529Z,1.20
2023-04-02T10:16:05.205Z,1.43
2023-04-02T10:18:14.828Z,1.30
2023-04-02T10:20:20.185Z,1.13
2023-04-02T10:22:24.172Z,1.35
2023-04-02T10:24:28.921Z,1.40
2023-04-02T10:26:52.993Z,1.13
2023-04-02T10:29:06.890Z,1.20
2023-04-02T10:33:26.116Z,1.10
2023-04-02T10:35:39.683Z,1.60
2023-04-02T10:41:00.891Z,1.40
2023-04-02T10:43:30.700Z,1.27
2023-04-02T10:45:39.002Z,1.40
2023-04-02T10:47:44.746Z,1.13
2023-04-02T10:49:51.594Z,1.27
2023-04-02T10:51:59.931Z,1.37
2023-04-02T10:54:07.766Z,1.20
2023-04-02T10:56:13.456Z,1.27
2023-04-02T10:58:23.730Z,1.33
2023-04-02T11:00:28.292Z,1.00
2023-04-02T11:02:36.224Z,1.10
2023-04-02T11:04:43.122Z,1.37
2023-04-02T11:06:48.957Z,1.57
2023-04-02T11:08:53.301Z,1.10
2023-04-02T11:10:59.794Z,1.30
2023-04-02T11:13:06.764Z,1.40
2023-04-02T11:15:15.388Z,1.50
2023-04-02T11:17:20.990Z,1.60
2023-04-02T11:19:27.353Z,1.40
2023-04-02T11:21:55.158Z,1.70
2023-04-02T11:24:03.925Z,1.40
2023-04-02T11:26:30.186Z,1.53
2023-04-02T11:28:33.964Z,1.40
2023-04-02T11:30:37.521Z,1.67
2023-04-02T11:32:42.956Z,1.53
2023-04-02T11:38:51.761Z,1.57
2023-04-02T11:40:58.279Z,1.30
2023-04-02T11:43:39.097Z,1.30
2023-04-02T11:45:56.355Z,1.40
2023-04-02T11:48:31.484Z,1.40
2023-04-02T11:50:36.046Z,1.40
2023-04-02T11:53:28.365Z,1.47
2023-04-02T11:55:33.313Z,1.70
2023-04-02T11:57:47.447Z,1.57
2023-04-02T11:59:56.628Z,1.70
2023-04-02T12:02:05.097Z,1.70
2023-04-02T12:04:45.682Z,1.60
2023-04-02T12:06:55.063Z,1.40
2023-04-02T12:09:12.852Z,1.50
2023-04-02T12:11:16.901Z,2.07
2023-04-02T12:13:22.176Z,1.50
2023-04-02T12:15:51.062Z,1.80
2023-04-02T12:17:54.721Z,2.07
2023-04-02T12:19:59.415Z,1.50
2023-04-02T12:22:03.105Z,1.80
2023-04-02T12:24:07.311Z,2.38
2023-04-02T12:26:32.205Z,2.40
2023-04-02T12:28:38.956Z,2.13
2023-04-02T12:30:42.920Z,2.20
2023-04-02T12:32:46.814Z,1.88
2023-04-02T12:35:02.914Z,1.90
2023-04-02T12:37:07.221Z,2.00
2023-04-02T12:39:17.472Z,2.13
2023-04-02T12:41:25.554Z,2.13
2023-04-02T12:43:29.558Z,1.87
2023-04-02T12:45:34.622Z,1.83
2023-04-02T12:47:38.260Z,2.10
2023-04-02T12:49:42.078Z,1.90
2023-04-02T12:51:51.730Z,2.20
2023-04-02T12:53:56.520Z,2.13
2023-04-02T12:55:59.976Z,2.33
2023-04-02T12:58:03.912Z,1.85
2023-04-02T13:00:37.515Z,2.25
2023-04-02T13:02:46.101Z,1.93
2023-04-02T13:05:10.479Z,2.40
2023-04-02T13:07:16.954Z,2.50
2023-04-02T13:09:30.129Z,2.60
2023-04-02T13:11:37.430Z,2.80
2023-04-02T13:13:41.692Z,2.67
2023-04-02T13:15:46.685Z,2.30
2023-04-02T13:18:02.738Z,2.67
2023-04-02T13:20:32.406Z,2.43
2023-04-02T13:22:41.437Z,2.90
2023-04-02T13:24:45.124Z,3.00
2023-04-02T13:26:50.099Z,2.57
2023-04-02T13:29:02.370Z,3.10
2023-04-02T13:31:07.712Z,3.10
2023-04-02T13:33:15.340Z,2.80
2023-04-02T13:35:22.602Z,2.97
2023-04-02T13:37:38.103Z,3.27
2023-04-02T13:39:44.158Z,3.30
2023-04-02T13:41:48.891Z,3.30
2023-04-02T13:44:03.865Z,3.33
2023-04-02T13:46:09.248Z,3.57
2023-04-02T13:48:15.980Z,3.60
2023-04-02T13:50:20.285Z,3.80
2023-04-02T13:52:23.908Z,3.60
2023-04-02T13:54:31.307Z,3.60
2023-04-02T13:56:34.863Z,3.80
2023-04-02T13:58:38.469Z,3.70
2023-04-02T14:00:41.945Z,3.97
2023-04-02T14:02:48.474Z,4.20
2023-04-02T14:04:53.013Z,3.80
2023-04-02T14:07:35.848Z,3.60
2023-04-02T14:10:02.276Z,3.97
2023-04-02T14:12:08.102Z,4.20
2023-04-02T14:14:22.311Z,3.90
2023-04-02T14:16:33.903Z,3.73
2023-04-02T14:19:15.277Z,3.90
2023-04-02T14:21:21.486Z,3.83
2023-04-02T14:23:36.030Z,3.97
2023-04-02T14:25:47.347Z,4.00
2023-04-02T14:27:54.588Z,4.10
2023-04-02T14:30:00.833Z,3.80
2023-04-02T14:32:06.630Z,3.50
2023-04-02T14:34:13.743Z,3.60
2023-04-02T14:36:24.303Z,3.53
2023-04-02T14:38:30.655Z,2.97
2023-04-02T14:40:36.584Z,3.23
2023-04-02T14:42:41.935Z,3.20
2023-04-02T14:44:49.004Z,2.87
2023-04-02T14:46:52.447Z,3.30
2023-04-02T14:48:57.521Z,3.57
2023-04-02T14:53:15.866Z,3.70
2023-04-02T14:55:24.063Z,3.70
2023-04-02T14:57:28.655Z,3.47
2023-04-02T14:59:36.883Z,3.57
2023-04-02T15:01:52.755Z,3.43
2023-04-02T15:03:59.452Z,3.90
2023-04-02T15:06:14.487Z,3.70
2023-04-02T15:08:22.926Z,2.97
2023-04-02T15:10:30.453Z,3.13
2023-04-02T15:12:52.814Z,2.93
2023-04-02T15:14:57.497Z,3.40
2023-04-02T15:17:01.652Z,3.23
2023-04-02T15:19:06.309Z,3.40
2023-04-02T15:21:49.733Z,2.80
2023-04-02T15:23:57.787Z,2.87
2023-04-02T15:26:04.845Z,3.00
2023-04-02T15:28:21.101Z,3.07
2023-04-02T15:30:26.079Z,2.80
2023-04-02T15:32:32.337Z,3.20
2023-04-02T15:34:37.040Z,2.80
2023-04-02T15:37:16.109Z,3.17
2023-04-02T15:39:40.098Z,2.53
2023-04-02T15:41:47.016Z,2.93
2023-04-02T15:44:02.532Z,2.80
2023-04-02T15:46:11.869Z,2.67
2023-04-02T15:48:33.210Z,2.93
2023-04-02T15:50:44.146Z,2.57
2023-04-02T15:52:49.942Z,2.60
2023-04-02T15:55:01.310Z,2.70
2023-04-02T15:57:11.871Z,2.60
2023-04-02T15:59:42.983Z,2.67
2023-04-02T16:01:51.607Z,2.90
2023-04-02T16:04:05.169Z,2.77
2023-04-02T16:06:18.131Z,3.07
2023-04-02T16:08:38.796Z,3.17
2023-04-02T16:10:45.301Z,3.03
2023-04-02T16:12:49.697Z,3.03
2023-04-02T16:14:53.512Z,3.93
2023-04-02T16:17:27.708Z,3.07
2023-04-02T16:19:33.679Z,3.23
2023-04-02T16:21:40.186Z,3.30
2023-04-02T16:23:44.181Z,3.23
2023-04-02T16:25:56.620Z,3.40
2023-04-02T16:28:05.155Z,2.80
2023-04-02T16:30:52.784Z,3.53
2023-04-02T16:33:03.067Z,3.13
2023-04-02T16:35:27.223Z,3.00
2023-04-02T16:37:35.774Z,3.17
2023-04-02T16:39:41.151Z,2.67
2023-04-02T16:41:53.776Z,3.07
2023-04-02T16:44:01.720Z,3.03
2023-04-02T16:46:07.346Z,3.30
2023-04-02T16:48:24.065Z,3.03
2023-04-02T16:50:34.818Z,3.00
2023-04-02T16:52:43.126Z,3.00
2023-04-02T16:54:49.749Z,3.10
2023-04-02T16:57:07.551Z,2.57
2023-04-02T16:59:17.222Z,3.00
2023-04-02T17:01:23.517Z,2.73
2023-04-02T17:03:48.206Z,3.43
2023-04-02T17:05:55.729Z,3.37
2023-04-02T17:08:14.672Z,3.33
2023-04-02T17:10:30.388Z,3.77
2023-04-02T17:12:37.372Z,3.37
2023-04-02T17:14:42.682Z,3.73
2023-04-02T17:16:47.255Z,4.03
2023-04-02T17:18:52.019Z,3.80
2023-04-02T17:20:55.894Z,3.70
2023-04-02T17:22:59.684Z,3.40
2023-04-02T17:25:04.944Z,4.03
2023-04-02T17:27:16.719Z,3.53
2023-04-02T17:29:25.271Z,3.70
2023-04-02T17:31:31.092Z,3.97
2023-04-02T17:33:34.715Z,4.00
2023-04-02T17:35:45.489Z,3.60
2023-04-02T17:37:52.553Z,3.73
2023-04-02T17:39:59.764Z,3.57
2023-04-02T17:42:07.940Z,3.70
2023-04-02T17:44:33.157Z,3.13
2023-04-02T17:46:37.405Z,3.93
2023-04-02T17:48:43.794Z,4.00
2023-04-02T17:50:52.212Z,3.73
2023-04-02T17:52:58.524Z,3.80
2023-04-02T17:55:22.187Z,3.27
2023-04-02T17:57:46.765Z,3.83
2023-04-02T18:00:02.483Z,3.70
2023-04-02T18:02:14.714Z,3.17
2023-04-02T18:04:23.632Z,3.20
2023-04-02T18:06:29.572Z,3.30
2023-04-02T18:08:35.001Z,3.17
2023-04-02T18:10:42.582Z,3.63
2023-04-02T18:13:13.964Z,3.20
2023-04-02T18:15:46.724Z,3.37
2023-04-02T18:17:51.398Z,3.03
2023-04-02T18:19:57.823Z,3.33
2023-04-02T18:22:02.998Z,3.27
2023-04-02T18:24:26.142Z,3.20
2023-04-02T18:26:34.612Z,3.10
2023-04-02T18:28:47.024Z,3.27
2023-04-02T18:30:58.002Z,3.50
2023-04-02T18:33:21.968Z,2.97
2023-04-02T18:35:26.551Z,3.43
2023-04-02T18:37:33.771Z,2.93
2023-04-02T18:39:42.781Z,3.30
2023-04-02T18:41:49.966Z,3.17
2023-04-02T18:44:01.560Z,3.63
2023-04-02T18:46:07.556Z,3.30
2023-04-02T18:48:19.511Z,3.33
2023-04-02T18:50:25.660Z,3.13
2023-04-02T18:52:29.370Z,2.87
2023-04-02T18:54:37.106Z,2.90
2023-04-02T18:56:40.888Z,3.10
2023-04-02T18:58:50.212Z,3.07
2023-04-02T19:00:54.192Z,2.90
2023-04-02T19:03:02.798Z,2.80
2023-04-02T19:05:17.191Z,2.70
2023-04-02T19:07:21.416Z,2.77
2023-04-02T19:09:26.013Z,2.77
2023-04-02T19:11:31.228Z,2.73
2023-04-02T19:13:34.898Z,2.70
2023-04-02T19:15:41.497Z,2.33
2023-04-02T19:17:47.102Z,2.80
2023-04-02T19:19:57.486Z,2.97
2023-04-02T19:22:16.633Z,2.90
2023-04-02T19:27:21.214Z,2.70
2023-04-02T19:29:32.961Z,2.80
2023-04-02T19:31:41.788Z,2.60
2023-04-02T19:33:49.514Z,2.60
2023-04-02T19:35:57.301Z,2.33
2023-04-02T19:38:04.355Z,2.50
2023-04-02T19:40:24.506Z,2.40
2023-04-02T19:42:49.603Z,2.50
2023-04-02T19:44:53.614Z,2.00
2023-04-02T19:46:58.185Z,2.17
2023-04-02T19:49:04.651Z,1.70
2023-04-02T19:51:09.764Z,1.90
2023-04-02T19:53:13.616Z,1.90
2023-04-02T19:55:17.190Z,2.00
2023-04-02T19:57:28.529Z,1.93
2023-04-02T19:59:35.134Z,2.40
2023-04-02T20:01:38.612Z,2.20
2023-04-02T20:03:42.163Z,2.27
2023-04-02T20:05:45.829Z,2.37
2023-04-02T20:08:14.150Z,2.43
2023-04-02T20:10:17.962Z,2.17
2023-04-02T20:12:21.464Z,2.33
2023-04-02T20:14:25.005Z,2.13
2023-04-02T20:16:28.622Z,1.97
2023-04-02T20:18:32.192Z,2.10
2023-04-02T20:20:36.073Z,2.10
2023-04-02T20:22:45.200Z,1.90
2023-04-02T20:24:51.020Z,2.20
2023-04-02T20:26:54.614Z,2.00
2023-04-02T20:28:58.194Z,2.37
2023-04-02T20:31:09.033Z,2.00
2023-04-02T20:33:14.945Z,1.93
2023-04-02T20:35:18.643Z,2.00
2023-04-02T20:37:22.233Z,1.93
2023-04-02T20:39:25.692Z,2.13
2023-04-02T20:41:30.894Z,2.00
2023-04-02T20:43:34.592Z,2.30
2023-04-02T20:45:38.073Z,1.90
2023-04-02T20:47:41.586Z,2.20
2023-04-02T20:49:48.535Z,2.10
2023-04-02T20:51:52.847Z,2.13
2023-04-02T20:53:56.482Z,2.10
2023-04-02T20:56:05.750Z,2.20
2023-04-02T20:58:10.900Z,2.40
2023-04-02T21:00:32.207Z,2.37
2023-04-02T21:02:35.877Z,1.97
2023-04-02T21:04:39.544Z,2.43
2023-04-02T21:06:43.133Z,1.93
2023-04-02T21:08:46.792Z,2.13
2023-04-02T21:10:50.804Z,2.10
2023-04-02T21:13:23.802Z,1.77
2023-04-02T21:15:27.619Z,2.00
2023-04-02T21:17:31.279Z,1.90
2023-04-02T21:19:52.358Z,1.90
2023-04-02T21:25:12.742Z,2.00
2023-04-02T21:27:16.946Z,1.63
2023-04-02T21:29:25.174Z,1.83
2023-04-02T21:31:34.527Z,1.97
2023-04-02T21:33:38.883Z,1.87
2023-04-02T21:35:42.457Z,1.60
2023-04-02T21:38:07.590Z,1.87
2023-04-02T21:40:11.435Z,1.77
2023-04-02T21:42:15.392Z,1.87
2023-04-02T21:44:20.087Z,1.90
2023-04-02T21:46:27.311Z,1.93
2023-04-02T21:48:31.682Z,2.03
2023-04-02T21:50:35.286Z,2.23
2023-04-02T21:52:39.743Z,1.60
2023-04-02T21:54:43.274Z,1.93
2023-04-02T21:57:29.585Z,1.73
2023-04-02T21:59:33.197Z,2.20
2023-04-02T22:01:39.009Z,2.00
2023-04-02T22:03:42.574Z,1.73
2023-04-02T22:05:46.143Z,2.00
2023-04-02T22:07:49.518Z,1.87
2023-04-02T22:14:23.776Z,1.70
2023-04-02T22:16:32.160Z,1.90
2023-04-02T22:18:43.470Z,1.70
2023-04-02T22:20:46.933Z,2.13
2023-04-02T22:22:56.663Z,1.70
2023-04-02T22:25:00.705Z,1.73
2023-04-02T22:27:04.226Z,2.00
2023-04-02T22:29:07.885Z,1.90
2023-04-02T22:31:13.017Z,1.70
2023-04-02T22:33:36.409Z,1.80
2023-04-02T22:35:41.561Z,1.70
2023-04-02T22:37:45.079Z,1.57
2023-04-02T22:39:48.609Z,1.90
2023-04-02T22:41:52.098Z,1.70
2023-04-02T22:43:56.356Z,1.60
2023-04-02T22:45:59.977Z,1.47
2023-04-02T22:48:03.478Z,2.00
2023-04-02T22:50:08.132Z,1.70
2023-04-02T22:52:49.223Z,1.97
2023-04-02T22:54:54.566Z,1.97
2023-04-02T22:56:58.146Z,1.83
2023-04-02T22:59:02.799Z,2.17
2023-04-02T23:01:15.344Z,2.30
2023-04-02T23:03:18.885Z,2.50
2023-04-02T23:05:43.479Z,2.40
2023-04-02T23:07:47.053Z,2.40
2023-04-02T23:09:50.764Z,1.97
2023-04-02T23:11:55.757Z,2.80
2023-04-02T23:13:59.447Z,2.13
2023-04-02T23:16:03.073Z,1.70
2023-04-02T23:18:06.680Z,1.93
2023-04-02T23:20:12.286Z,1.90
2023-04-02T23:22:22.388Z,1.70
2023-04-02T23:24:25.954Z,2.23
2023-04-02T23:26:31.512Z,1.70
2023-04-02T23:28:36.818Z,1.80
2023-04-02T23:30:41.456Z,1.70
2023-04-02T23:32:45.009Z,1.80
2023-04-02T23:34:48.696Z,1.90
2023-04-02T23:36:56.174Z,1.63
2023-04-02T23:39:04.200Z,1.73
2023-04-02T23:41:08.050Z,1.57
2023-04-02T23:43:11.604Z,1.93
2023-04-02T23:45:21.087Z,1.80
2023-04-02T23:47:24.540Z,1.80
2023-04-02T23:49:47.994Z,1.47
2023-04-02T23:51:51.632Z,1.60
2023-04-02T23:54:00.475Z,1.67
2023-04-02T23:56:05.481Z,1.37
2023-04-02T23:58:09.613Z,1.53
